ADDS METAR Data INFO
IDs: Format: Raw Decoded Include TAF

Data at: 1229 UTC 22 Feb 2018

KAUS 221206Z 36010KT 2SM -DZ BR OVC004 03/03 A3024 RMK AO2 SFC VIS 3 LTG DSNT SW-N P0000 T00280028
KAUS 221153Z 01011KT 2SM -DZ BR OVC005 03/03 A3023 RMK AO2 SFC VIS 3 LTG DSNT N AND NW RAE33DZB33 SLP243 P0000 60001 70028 T00330033 10050 20028 53004
KAUS 221138Z 01012KT 2SM -DZ BR OVC005 03/03 A3022 RMK AO2 SFC VIS 2 1/2 LTG DSNT ALQDS RAE33DZB33 P0000 T00330033
KAUS 221053Z 01010KT 2SM -RA BR OVC004 03/03 A3022 RMK AO2 SFC VIS 2 1/2 DZE46RAB46 SLP239 P0001 T00330033
KAUS 221032Z 36013KT 2SM -DZ BR OVC004 03/03 A3022 RMK AO2 SFC VIS 2 1/2 P0001 T00330033
KAUS 221015Z 01013KT 3SM -DZ BR OVC004 03/03 A3022 RMK AO2 P0000 T00330033
KAUS 220953Z 01012KT 3SM -DZ BR OVC005 03/03 A3022 RMK AO2 RAB00E09DZB45 SLP239 P0000 T00330033
KAUS 220853Z 36012KT 10SM OVC008 04/04 A3022 RMK AO2 SLP239 T00390039 58011
KAUS 220753Z 01013KT 10SM OVC008 04/04 A3023 RMK AO2 SLP244 T00390039
KAUS 220653Z 36012KT 10SM OVC008 04/04 A3025 RMK AO2 SLP248 T00440044
KAUS 220553Z 36012KT 10SM OVC009 05/04 A3025 RMK AO2 SLP250 60002 T00500044 10067 20050 402170044 51003
KAUS 220517Z 36008KT 10SM OVC009 05/04 A3025 RMK AO2 T00500044
KAUS 220453Z 36013KT 10SM OVC010 06/05 A3025 RMK AO2 SLP249 T00560050
KAUS 220353Z 35014KT 10SM OVC009 06/06 A3025 RMK AO2 SLP250 T00560056
KAUS 220011Z 35009KT 10SM BKN010 OVC020 06/06 A3021 RMK AO2 LTG DSNT N AND NE RAE11 P0002 T00560056
KAUS 212353Z 35012KT 3SM R17L/4000VP6000FT +RA BR SCT012 OVC018 05/05 A3020 RMK AO2 TWR VIS 5 RAB36 SLP230 P0017 60020 T00500050 10061 20044 53008
KAUS 212324Z 01011KT 10SM FEW013 OVC018 05/04 A3019 RMK AO2 LTG DSNT N T00500044
KAUS 212253Z 35012KT 9SM BKN013 OVC018 05/04 A3018 RMK AO2 LTG DSNT NW-NE SLP225 OCNL LTGIC DSNT N T00500044
KAUS 212153Z 34014KT 9SM BKN010 OVC017 04/04 A3018 RMK AO2 LTG DSNT NE AND W RAB2059E20 SLP226 OCNL LTGIC N-NE P0001 T00440044
KAUS 212127Z 36014KT 8SM BKN010 OVC017 05/05 A3017 RMK AO2 LTG DSNT N AND NE RAB2059E20 P0001 T00500050
KAUS 212053Z 35014G21KT 6SM BR BKN009 OVC013 05/04 A3017 RMK AO2 RAE18 SLP219 P0000 60002 T00500044 55005
KAUS 212026Z 35013G18KT 6SM BR BKN009 OVC013 05/05 A3017 RMK AO2 RAE18 P0000 T00500050
KAUS 212019Z 34011KT 9SM BKN010 OVC013 05/05 A3017 RMK AO2 RAE18 P0000 T00500050
KAUS 211953Z 35018KT 2SM R17L/3500VP6000FT -RA BR OVC010 05/05 A3017 RMK AO2 SFC VIS 2 1/2 SLP216 P0000 T00500050
KAUS 211853Z 34014KT 2SM -RA OVC010 06/06 A3018 RMK AO2 SFC VIS 7 SLP218 P0002 T00560056
KAUS 211753Z 36015KT 2SM -RA BR OVC009 06/06 A3019 RMK AO2 SFC VIS 4 SLP222 P0001 60005 T00610061 10078 20056 53009
KAUS 211653Z 35009KT 2SM R17L/3500VP6000FT RA BR OVC008 06/06 A3018 RMK AO2 SFC VIS 2 1/2 RAB27 SLP219 P0003 T00610061
KAUS 211637Z 36015G22KT 2SM -RA BR OVC009 06/06 A3018 RMK AO2 SFC VIS 3 RAB27 P0000 T00610056
KAUS 211553Z 01014KT 9SM OVC008 06/06 A3017 RMK AO2 RAB24E47 SLP214 P0000 T00560056
KAUS 211453Z 02014KT 10SM OVC007 06/06 A3016 RMK AO2 RAE34 SLP212 P0001 60001 T00560056 53011
KAUS 211353Z 01016G23KT 9SM -RA OVC007 06/06 A3015 RMK AO2 RAB1256 SLP208 P0000 T00560056
KAUS 211253Z 36017KT 10SM OVC007 07/07 A3013 RMK AO2 RAE12B38E53 SLP202 P0000 T00720072
KAUS 210753Z 18012KT 10SM SCT018 BKN036 BKN045 OVC200 22/20 A3001 RMK AO2 SLP153 FRQ LTG DSNT NW T02170200
KAUS 210751Z 17012KT 10SM SCT018 BKN036 BKN045 OVC200 22/21 A3001 RMK AO2 FRQ LTG DSNT NW
KAUS 210653Z 15010KT 10SM SCT019 BKN028 BKN034 OVC200 22/21 A3000 RMK AO2 RAE13 SLP151 P0000 T02170211
KAUS 210553Z 15008KT 9SM -RA FEW037 SCT070 BKN095 OVC200 22/22 A3001 RMK AO2 RAB46 SLP156 P0000 60000 T02170217 10228 20217 402280206 51020